sensor_id;sensor_type;location;lat;lon;timestamp;P1;durP1;ratioP1;P2;durP2;ratioP2
13568;SDS011;6856;51.460;7.158;2024-01-10T00:00:36;6.93;;;3.87;;
13568;SDS011;6856;51.460;7.158;2024-01-10T00:03:10;7.17;;;3.70;;
13568;SDS011;6856;51.460;7.158;2024-01-10T00:05:46;4.43;;;3.10;;
13568;SDS011;6856;51.460;7.158;2024-01-10T00:08:20;6.83;;;3.60;;
13568;SDS011;6856;51.460;7.158;2024-01-10T00:10:57;4.83;;;3.20;;
13568;SDS011;6856;51.460;7.158;2024-01-10T00:13:33;5.60;;;3.67;;
13568;SDS011;6856;51.460;7.158;2024-01-10T00:16:08;5.73;;;3.40;;
13568;SDS011;6856;51.460;7.158;2024-01-10T00:18:45;5.30;;;3.40;;
13568;SDS011;6856;51.460;7.158;2024-01-10T00:21:20;6.17;;;2.93;;
13568;SDS011;6856;51.460;7.158;2024-01-10T00:23:56;5.87;;;3.20;;
13568;SDS011;6856;51.460;7.158;2024-01-10T00:26:34;5.87;;;3.47;;
13568;SDS011;6856;51.460;7.158;2024-01-10T00:29:08;6.43;;;3.10;;
13568;SDS011;6856;51.460;7.158;2024-01-10T00:31:42;5.60;;;3.23;;
13568;SDS011;6856;51.460;7.158;2024-01-10T00:34:16;5.83;;;3.10;;
13568;SDS011;6856;51.460;7.158;2024-01-10T00:36:50;6.23;;;3.27;;
13568;SDS011;6856;51.460;7.158;2024-01-10T00:39:27;6.90;;;3.53;;
13568;SDS011;6856;51.460;7.158;2024-01-10T00:42:03;5.53;;;3.70;;
13568;SDS011;6856;51.460;7.158;2024-01-10T00:44:39;5.00;;;2.97;;
13568;SDS011;6856;51.460;7.158;2024-01-10T00:47:15;6.07;;;3.70;;
13568;SDS011;6856;51.460;7.158;2024-01-10T00:49:54;6.13;;;3.13;;
13568;SDS011;6856;51.460;7.158;2024-01-10T00:52:28;5.33;;;3.30;;
13568;SDS011;6856;51.460;7.158;2024-01-10T00:55:02;6.00;;;4.10;;
13568;SDS011;6856;51.460;7.158;2024-01-10T00:57:40;6.50;;;3.37;;
13568;SDS011;6856;51.460;7.158;2024-01-10T01:00:14;5.30;;;3.70;;
13568;SDS011;6856;51.460;7.158;2024-01-10T01:02:49;5.67;;;3.50;;
13568;SDS011;6856;51.460;7.158;2024-01-10T01:05:25;6.80;;;3.60;;
13568;SDS011;6856;51.460;7.158;2024-01-10T01:08:00;4.50;;;3.07;;
13568;SDS011;6856;51.460;7.158;2024-01-10T01:10:35;5.70;;;3.53;;
13568;SDS011;6856;51.460;7.158;2024-01-10T01:13:11;6.47;;;3.60;;
13568;SDS011;6856;51.460;7.158;2024-01-10T01:15:48;4.90;;;3.53;;
13568;SDS011;6856;51.460;7.158;2024-01-10T01:18:24;5.47;;;3.40;;
13568;SDS011;6856;51.460;7.158;2024-01-10T01:20:59;6.77;;;4.10;;
13568;SDS011;6856;51.460;7.158;2024-01-10T01:23:38;3.97;;;2.80;;
13568;SDS011;6856;51.460;7.158;2024-01-10T01:26:18;7.23;;;3.93;;
13568;SDS011;6856;51.460;7.158;2024-01-10T01:28:56;4.93;;;3.10;;
13568;SDS011;6856;51.460;7.158;2024-01-10T01:31:31;5.77;;;3.47;;
13568;SDS011;6856;51.460;7.158;2024-01-10T01:34:07;4.87;;;3.13;;
13568;SDS011;6856;51.460;7.158;2024-01-10T01:36:42;4.63;;;3.17;;
13568;SDS011;6856;51.460;7.158;2024-01-10T01:39:16;6.03;;;3.53;;
13568;SDS011;6856;51.460;7.158;2024-01-10T01:41:55;5.43;;;3.63;;
13568;SDS011;6856;51.460;7.158;2024-01-10T01:44:45;5.37;;;3.30;;
13568;SDS011;6856;51.460;7.158;2024-01-10T01:47:20;4.93;;;3.10;;
13568;SDS011;6856;51.460;7.158;2024-01-10T01:49:56;6.03;;;3.13;;
13568;SDS011;6856;51.460;7.158;2024-01-10T01:52:31;6.00;;;3.50;;
13568;SDS011;6856;51.460;7.158;2024-01-10T01:55:08;7.73;;;3.93;;
13568;SDS011;6856;51.460;7.158;2024-01-10T01:57:43;7.30;;;3.73;;
13568;SDS011;6856;51.460;7.158;2024-01-10T02:00:19;5.43;;;2.87;;
13568;SDS011;6856;51.460;7.158;2024-01-10T02:02:53;6.43;;;3.83;;
13568;SDS011;6856;51.460;7.158;2024-01-10T02:05:29;5.30;;;3.70;;
13568;SDS011;6856;51.460;7.158;2024-01-10T02:08:05;6.77;;;3.73;;
13568;SDS011;6856;51.460;7.158;2024-01-10T02:10:39;6.37;;;3.80;;
13568;SDS011;6856;51.460;7.158;2024-01-10T02:13:16;6.73;;;4.10;;
13568;SDS011;6856;51.460;7.158;2024-01-10T02:15:57;6.90;;;4.10;;
13568;SDS011;6856;51.460;7.158;2024-01-10T02:18:33;5.40;;;3.77;;
13568;SDS011;6856;51.460;7.158;2024-01-10T02:21:08;6.07;;;3.40;;
13568;SDS011;6856;51.460;7.158;2024-01-10T02:23:41;4.97;;;3.27;;
13568;SDS011;6856;51.460;7.158;2024-01-10T02:26:26;7.20;;;3.13;;
13568;SDS011;6856;51.460;7.158;2024-01-10T02:29:00;6.03;;;3.03;;
13568;SDS011;6856;51.460;7.158;2024-01-10T02:31:36;4.63;;;3.13;;
13568;SDS011;6856;51.460;7.158;2024-01-10T02:34:11;4.47;;;3.17;;
13568;SDS011;6856;51.460;7.158;2024-01-10T02:36:47;5.13;;;3.47;;
13568;SDS011;6856;51.460;7.158;2024-01-10T02:39:22;4.83;;;3.27;;
13568;SDS011;6856;51.460;7.158;2024-01-10T02:42:07;6.13;;;3.80;;
13568;SDS011;6856;51.460;7.158;2024-01-10T02:44:44;6.43;;;3.43;;
13568;SDS011;6856;51.460;7.158;2024-01-10T02:47:19;6.00;;;3.60;;
13568;SDS011;6856;51.460;7.158;2024-01-10T02:49:57;4.80;;;3.20;;
13568;SDS011;6856;51.460;7.158;2024-01-10T02:52:31;7.23;;;4.13;;
13568;SDS011;6856;51.460;7.158;2024-01-10T02:55:06;6.40;;;4.23;;
13568;SDS011;6856;51.460;7.158;2024-01-10T02:57:48;6.03;;;3.77;;
13568;SDS011;6856;51.460;7.158;2024-01-10T03:00:25;5.93;;;3.80;;
13568;SDS011;6856;51.460;7.158;2024-01-10T03:03:02;6.87;;;4.73;;
13568;SDS011;6856;51.460;7.158;2024-01-10T03:05:38;5.37;;;3.37;;
13568;SDS011;6856;51.460;7.158;2024-01-10T03:08:14;6.47;;;4.10;;
13568;SDS011;6856;51.460;7.158;2024-01-10T03:10:51;7.40;;;3.73;;
13568;SDS011;6856;51.460;7.158;2024-01-10T03:13:27;5.60;;;3.23;;
13568;SDS011;6856;51.460;7.158;2024-01-10T03:16:04;5.93;;;3.90;;
13568;SDS011;6856;51.460;7.158;2024-01-10T03:18:47;5.30;;;3.50;;
13568;SDS011;6856;51.460;7.158;2024-01-10T03:21:39;5.77;;;3.83;;
13568;SDS011;6856;51.460;7.158;2024-01-10T03:24:13;5.80;;;3.67;;
13568;SDS011;6856;51.460;7.158;2024-01-10T03:26:48;4.00;;;3.10;;
13568;SDS011;6856;51.460;7.158;2024-01-10T03:29:24;6.63;;;3.83;;
13568;SDS011;6856;51.460;7.158;2024-01-10T03:31:59;5.33;;;3.47;;
13568;SDS011;6856;51.460;7.158;2024-01-10T03:34:34;5.37;;;3.90;;
13568;SDS011;6856;51.460;7.158;2024-01-10T03:37:08;6.00;;;3.90;;
13568;SDS011;6856;51.460;7.158;2024-01-10T03:39:44;5.57;;;3.57;;
13568;SDS011;6856;51.460;7.158;2024-01-10T03:42:18;7.40;;;3.87;;
13568;SDS011;6856;51.460;7.158;2024-01-10T03:44:56;6.57;;;3.87;;
13568;SDS011;6856;51.460;7.158;2024-01-10T03:47:30;8.33;;;4.97;;
13568;SDS011;6856;51.460;7.158;2024-01-10T03:50:06;7.10;;;3.83;;
13568;SDS011;6856;51.460;7.158;2024-01-10T03:52:41;6.57;;;3.60;;
13568;SDS011;6856;51.460;7.158;2024-01-10T03:55:22;5.27;;;3.43;;
13568;SDS011;6856;51.460;7.158;2024-01-10T03:57:57;6.10;;;3.30;;
13568;SDS011;6856;51.460;7.158;2024-01-10T04:00:34;6.43;;;3.67;;
13568;SDS011;6856;51.460;7.158;2024-01-10T04:03:09;6.20;;;3.80;;
13568;SDS011;6856;51.460;7.158;2024-01-10T04:05:44;7.43;;;4.17;;
13568;SDS011;6856;51.460;7.158;2024-01-10T04:08:19;5.53;;;3.60;;
13568;SDS011;6856;51.460;7.158;2024-01-10T04:10:55;6.80;;;4.07;;
13568;SDS011;6856;51.460;7.158;2024-01-10T04:13:32;6.43;;;4.00;;
13568;SDS011;6856;51.460;7.158;2024-01-10T04:16:08;5.27;;;3.40;;
13568;SDS011;6856;51.460;7.158;2024-01-10T04:18:42;6.40;;;4.10;;
13568;SDS011;6856;51.460;7.158;2024-01-10T04:21:16;6.77;;;4.30;;
13568;SDS011;6856;51.460;7.158;2024-01-10T04:23:53;5.27;;;3.57;;
13568;SDS011;6856;51.460;7.158;2024-01-10T04:26:28;7.30;;;4.17;;
13568;SDS011;6856;51.460;7.158;2024-01-10T04:29:06;6.73;;;3.97;;
13568;SDS011;6856;51.460;7.158;2024-01-10T04:31:42;5.83;;;3.97;;
13568;SDS011;6856;51.460;7.158;2024-01-10T04:34:16;6.47;;;4.10;;
13568;SDS011;6856;51.460;7.158;2024-01-10T04:36:56;6.80;;;4.13;;
13568;SDS011;6856;51.460;7.158;2024-01-10T04:39:31;7.20;;;4.00;;
13568;SDS011;6856;51.460;7.158;2024-01-10T04:42:05;6.00;;;4.00;;
13568;SDS011;6856;51.460;7.158;2024-01-10T04:44:39;6.80;;;3.80;;
13568;SDS011;6856;51.460;7.158;2024-01-10T04:47:20;6.53;;;3.57;;
13568;SDS011;6856;51.460;7.158;2024-01-10T04:49:56;6.33;;;3.30;;
13568;SDS011;6856;51.460;7.158;2024-01-10T04:52:37;6.97;;;4.33;;
13568;SDS011;6856;51.460;7.158;2024-01-10T04:55:12;5.63;;;3.87;;
13568;SDS011;6856;51.460;7.158;2024-01-10T04:57:50;5.37;;;3.87;;
13568;SDS011;6856;51.460;7.158;2024-01-10T05:00:26;7.03;;;5.17;;
13568;SDS011;6856;51.460;7.158;2024-01-10T05:03:02;6.40;;;4.10;;
13568;SDS011;6856;51.460;7.158;2024-01-10T05:05:37;6.07;;;4.03;;
13568;SDS011;6856;51.460;7.158;2024-01-10T05:08:12;5.67;;;3.50;;
13568;SDS011;6856;51.460;7.158;2024-01-10T05:10:49;6.97;;;4.50;;
13568;SDS011;6856;51.460;7.158;2024-01-10T05:13:23;7.53;;;4.40;;
13568;SDS011;6856;51.460;7.158;2024-01-10T05:15:59;6.13;;;3.97;;
13568;SDS011;6856;51.460;7.158;2024-01-10T05:18:37;7.60;;;4.27;;
13568;SDS011;6856;51.460;7.158;2024-01-10T05:21:11;8.63;;;4.47;;
13568;SDS011;6856;51.460;7.158;2024-01-10T05:23:48;5.93;;;4.00;;
13568;SDS011;6856;51.460;7.158;2024-01-10T05:26:22;6.33;;;4.37;;
13568;SDS011;6856;51.460;7.158;2024-01-10T05:28:56;6.30;;;4.17;;
13568;SDS011;6856;51.460;7.158;2024-01-10T05:31:30;6.60;;;4.13;;
13568;SDS011;6856;51.460;7.158;2024-01-10T05:34:06;7.40;;;4.33;;
13568;SDS011;6856;51.460;7.158;2024-01-10T05:36:42;7.50;;;4.20;;
13568;SDS011;6856;51.460;7.158;2024-01-10T05:39:17;5.67;;;3.70;;
13568;SDS011;6856;51.460;7.158;2024-01-10T05:41:54;6.33;;;3.47;;
13568;SDS011;6856;51.460;7.158;2024-01-10T05:44:35;7.63;;;3.60;;
13568;SDS011;6856;51.460;7.158;2024-01-10T05:47:11;7.00;;;4.40;;
13568;SDS011;6856;51.460;7.158;2024-01-10T05:49:51;7.40;;;4.93;;
13568;SDS011;6856;51.460;7.158;2024-01-10T05:52:30;7.67;;;4.30;;
13568;SDS011;6856;51.460;7.158;2024-01-10T05:55:06;7.93;;;4.47;;
13568;SDS011;6856;51.460;7.158;2024-01-10T05:57:40;5.90;;;3.93;;
13568;SDS011;6856;51.460;7.158;2024-01-10T06:00:14;5.97;;;4.13;;
13568;SDS011;6856;51.460;7.158;2024-01-10T06:02:51;7.07;;;4.00;;
13568;SDS011;6856;51.460;7.158;2024-01-10T06:05:27;6.63;;;3.87;;
13568;SDS011;6856;51.460;7.158;2024-01-10T06:08:03;5.93;;;4.23;;
13568;SDS011;6856;51.460;7.158;2024-01-10T06:10:38;6.33;;;3.93;;
13568;SDS011;6856;51.460;7.158;2024-01-10T06:13:13;6.73;;;4.37;;
13568;SDS011;6856;51.460;7.158;2024-01-10T06:15:51;6.93;;;4.00;;
13568;SDS011;6856;51.460;7.158;2024-01-10T06:18:28;6.30;;;4.00;;
13568;SDS011;6856;51.460;7.158;2024-01-10T06:21:04;6.53;;;4.40;;
13568;SDS011;6856;51.460;7.158;2024-01-10T06:23:38;9.00;;;4.70;;
13568;SDS011;6856;51.460;7.158;2024-01-10T06:26:15;7.80;;;4.47;;
13568;SDS011;6856;51.460;7.158;2024-01-10T06:28:49;6.70;;;4.50;;
13568;SDS011;6856;51.460;7.158;2024-01-10T06:31:29;7.50;;;4.70;;
13568;SDS011;6856;51.460;7.158;2024-01-10T06:34:03;7.07;;;5.00;;
13568;SDS011;6856;51.460;7.158;2024-01-10T06:36:43;7.73;;;4.30;;
13568;SDS011;6856;51.460;7.158;2024-01-10T06:39:18;7.53;;;4.13;;
13568;SDS011;6856;51.460;7.158;2024-01-10T06:42:07;8.70;;;5.07;;
13568;SDS011;6856;51.460;7.158;2024-01-10T06:44:43;7.93;;;5.13;;
13568;SDS011;6856;51.460;7.158;2024-01-10T06:47:25;7.37;;;4.67;;
13568;SDS011;6856;51.460;7.158;2024-01-10T06:50:02;9.60;;;4.70;;
13568;SDS011;6856;51.460;7.158;2024-01-10T06:52:42;8.10;;;4.70;;
13568;SDS011;6856;51.460;7.158;2024-01-10T06:55:18;7.33;;;4.33;;
13568;SDS011;6856;51.460;7.158;2024-01-10T06:57:53;7.27;;;4.80;;
13568;SDS011;6856;51.460;7.158;2024-01-10T07:00:31;7.20;;;4.20;;
13568;SDS011;6856;51.460;7.158;2024-01-10T07:03:12;8.60;;;4.67;;
13568;SDS011;6856;51.460;7.158;2024-01-10T07:05:51;6.83;;;4.43;;
13568;SDS011;6856;51.460;7.158;2024-01-10T07:08:27;8.50;;;5.23;;
13568;SDS011;6856;51.460;7.158;2024-01-10T07:11:03;7.13;;;4.20;;
13568;SDS011;6856;51.460;7.158;2024-01-10T07:13:41;7.50;;;4.70;;
13568;SDS011;6856;51.460;7.158;2024-01-10T07:16:17;8.97;;;4.63;;
13568;SDS011;6856;51.460;7.158;2024-01-10T07:18:51;7.43;;;4.30;;
13568;SDS011;6856;51.460;7.158;2024-01-10T07:21:34;7.23;;;4.23;;
13568;SDS011;6856;51.460;7.158;2024-01-10T07:24:12;8.00;;;5.13;;
13568;SDS011;6856;51.460;7.158;2024-01-10T07:26:47;8.20;;;4.63;;
13568;SDS011;6856;51.460;7.158;2024-01-10T07:29:22;9.67;;;5.37;;
13568;SDS011;6856;51.460;7.158;2024-01-10T07:32:00;8.97;;;4.70;;
13568;SDS011;6856;51.460;7.158;2024-01-10T07:34:43;7.53;;;4.67;;
13568;SDS011;6856;51.460;7.158;2024-01-10T07:37:17;9.37;;;4.97;;
13568;SDS011;6856;51.460;7.158;2024-01-10T07:39:59;8.33;;;4.77;;
13568;SDS011;6856;51.460;7.158;2024-01-10T07:42:37;7.83;;;5.47;;
13568;SDS011;6856;51.460;7.158;2024-01-10T07:45:18;7.97;;;5.20;;
13568;SDS011;6856;51.460;7.158;2024-01-10T07:47:54;9.83;;;5.30;;
13568;SDS011;6856;51.460;7.158;2024-01-10T07:50:31;8.87;;;5.07;;
13568;SDS011;6856;51.460;7.158;2024-01-10T07:53:07;6.67;;;4.57;;
13568;SDS011;6856;51.460;7.158;2024-01-10T07:55:42;7.50;;;4.80;;
13568;SDS011;6856;51.460;7.158;2024-01-10T07:58:23;10.83;;;5.43;;
13568;SDS011;6856;51.460;7.158;2024-01-10T08:01:01;7.90;;;5.30;;
13568;SDS011;6856;51.460;7.158;2024-01-10T08:03:37;8.93;;;4.80;;
13568;SDS011;6856;51.460;7.158;2024-01-10T08:06:12;8.93;;;5.47;;
13568;SDS011;6856;51.460;7.158;2024-01-10T08:08:57;10.30;;;5.33;;
13568;SDS011;6856;51.460;7.158;2024-01-10T08:11:37;7.57;;;4.90;;
13568;SDS011;6856;51.460;7.158;2024-01-10T08:14:12;12.97;;;5.93;;
13568;SDS011;6856;51.460;7.158;2024-01-10T08:16:47;8.07;;;5.47;;
13568;SDS011;6856;51.460;7.158;2024-01-10T08:19:25;11.37;;;6.10;;
13568;SDS011;6856;51.460;7.158;2024-01-10T08:22:06;12.30;;;6.33;;
13568;SDS011;6856;51.460;7.158;2024-01-10T08:24:43;10.67;;;6.67;;
13568;SDS011;6856;51.460;7.158;2024-01-10T08:27:22;9.90;;;6.57;;
13568;SDS011;6856;51.460;7.158;2024-01-10T08:29:59;9.97;;;6.13;;
13568;SDS011;6856;51.460;7.158;2024-01-10T08:32:36;9.43;;;6.33;;
13568;SDS011;6856;51.460;7.158;2024-01-10T08:35:10;8.40;;;5.63;;
13568;SDS011;6856;51.460;7.158;2024-01-10T08:37:45;9.83;;;6.77;;
13568;SDS011;6856;51.460;7.158;2024-01-10T08:40:20;9.63;;;6.23;;
13568;SDS011;6856;51.460;7.158;2024-01-10T08:42:58;10.47;;;6.93;;
13568;SDS011;6856;51.460;7.158;2024-01-10T08:45:37;10.20;;;6.97;;
13568;SDS011;6856;51.460;7.158;2024-01-10T08:48:13;9.57;;;6.70;;
13568;SDS011;6856;51.460;7.158;2024-01-10T08:50:49;10.63;;;7.50;;
13568;SDS011;6856;51.460;7.158;2024-01-10T08:53:26;12.97;;;7.40;;
13568;SDS011;6856;51.460;7.158;2024-01-10T08:56:02;10.37;;;7.10;;
13568;SDS011;6856;51.460;7.158;2024-01-10T08:58:39;11.37;;;7.03;;
13568;SDS011;6856;51.460;7.158;2024-01-10T09:01:14;11.63;;;6.90;;
13568;SDS011;6856;51.460;7.158;2024-01-10T09:03:51;11.83;;;6.80;;
13568;SDS011;6856;51.460;7.158;2024-01-10T09:06:28;10.60;;;7.07;;
13568;SDS011;6856;51.460;7.158;2024-01-10T09:09:02;11.97;;;6.80;;
13568;SDS011;6856;51.460;7.158;2024-01-10T09:11:38;10.03;;;6.80;;
13568;SDS011;6856;51.460;7.158;2024-01-10T09:14:18;10.47;;;7.13;;
13568;SDS011;6856;51.460;7.158;2024-01-10T09:16:53;12.80;;;8.53;;
13568;SDS011;6856;51.460;7.158;2024-01-10T09:19:32;11.20;;;7.23;;
13568;SDS011;6856;51.460;7.158;2024-01-10T09:22:06;11.60;;;7.57;;
13568;SDS011;6856;51.460;7.158;2024-01-10T09:24:42;12.20;;;7.63;;
13568;SDS011;6856;51.460;7.158;2024-01-10T09:27:16;12.73;;;7.97;;
13568;SDS011;6856;51.460;7.158;2024-01-10T09:29:53;12.87;;;8.67;;
13568;SDS011;6856;51.460;7.158;2024-01-10T09:32:27;15.23;;;7.97;;
13568;SDS011;6856;51.460;7.158;2024-01-10T09:35:01;10.70;;;7.53;;
13568;SDS011;6856;51.460;7.158;2024-01-10T09:37:36;11.80;;;7.87;;
13568;SDS011;6856;51.460;7.158;2024-01-10T09:40:14;13.30;;;8.67;;
13568;SDS011;6856;51.460;7.158;2024-01-10T09:42:52;12.53;;;8.10;;
13568;SDS011;6856;51.460;7.158;2024-01-10T09:45:31;13.40;;;8.63;;
13568;SDS011;6856;51.460;7.158;2024-01-10T09:48:09;14.87;;;7.77;;
13568;SDS011;6856;51.460;7.158;2024-01-10T09:50:43;12.67;;;8.83;;
13568;SDS011;6856;51.460;7.158;2024-01-10T09:53:21;13.30;;;8.43;;
13568;SDS011;6856;51.460;7.158;2024-01-10T09:55:59;13.17;;;8.30;;
13568;SDS011;6856;51.460;7.158;2024-01-10T09:58:34;13.07;;;7.80;;
13568;SDS011;6856;51.460;7.158;2024-01-10T10:01:13;13.43;;;8.17;;
13568;SDS011;6856;51.460;7.158;2024-01-10T10:03:48;12.97;;;8.43;;
13568;SDS011;6856;51.460;7.158;2024-01-10T10:06:25;13.27;;;8.67;;
13568;SDS011;6856;51.460;7.158;2024-01-10T10:09:02;15.17;;;9.80;;
13568;SDS011;6856;51.460;7.158;2024-01-10T10:11:37;13.80;;;8.67;;
13568;SDS011;6856;51.460;7.158;2024-01-10T10:14:14;14.90;;;9.10;;
13568;SDS011;6856;51.460;7.158;2024-01-10T10:16:53;11.67;;;8.37;;
13568;SDS011;6856;51.460;7.158;2024-01-10T10:19:30;15.10;;;9.57;;
13568;SDS011;6856;51.460;7.158;2024-01-10T10:22:12;15.53;;;9.37;;
13568;SDS011;6856;51.460;7.158;2024-01-10T10:24:48;12.20;;;8.97;;
13568;SDS011;6856;51.460;7.158;2024-01-10T10:27:24;13.10;;;9.00;;
13568;SDS011;6856;51.460;7.158;2024-01-10T10:29:58;12.80;;;9.03;;
13568;SDS011;6856;51.460;7.158;2024-01-10T10:32:35;15.73;;;10.10;;
13568;SDS011;6856;51.460;7.158;2024-01-10T10:35:09;12.57;;;9.33;;
13568;SDS011;6856;51.460;7.158;2024-01-10T10:38:07;16.60;;;12.37;;
13568;SDS011;6856;51.460;7.158;2024-01-10T10:40:42;15.43;;;9.63;;
13568;SDS011;6856;51.460;7.158;2024-01-10T10:43:19;15.90;;;11.07;;
13568;SDS011;6856;51.460;7.158;2024-01-10T10:45:54;17.80;;;10.50;;
13568;SDS011;6856;51.460;7.158;2024-01-10T10:48:36;16.77;;;10.80;;
13568;SDS011;6856;51.460;7.158;2024-01-10T10:51:15;15.53;;;9.83;;
13568;SDS011;6856;51.460;7.158;2024-01-10T10:53:59;14.50;;;9.83;;
13568;SDS011;6856;51.460;7.158;2024-01-10T10:56:33;14.80;;;9.87;;
13568;SDS011;6856;51.460;7.158;2024-01-10T10:59:10;14.20;;;10.93;;
13568;SDS011;6856;51.460;7.158;2024-01-10T11:01:48;16.43;;;11.03;;
13568;SDS011;6856;51.460;7.158;2024-01-10T11:04:25;17.50;;;12.07;;
13568;SDS011;6856;51.460;7.158;2024-01-10T11:07:00;16.07;;;12.00;;
13568;SDS011;6856;51.460;7.158;2024-01-10T11:09:37;15.83;;;10.50;;
13568;SDS011;6856;51.460;7.158;2024-01-10T11:12:19;16.90;;;10.63;;
13568;SDS011;6856;51.460;7.158;2024-01-10T11:15:14;14.50;;;9.80;;
13568;SDS011;6856;51.460;7.158;2024-01-10T11:21:28;17.70;;;12.17;;
13568;SDS011;6856;51.460;7.158;2024-01-10T11:24:20;14.83;;;10.80;;
13568;SDS011;6856;51.460;7.158;2024-01-10T11:27:06;15.93;;;10.73;;
13568;SDS011;6856;51.460;7.158;2024-01-10T11:29:42;15.97;;;12.63;;
13568;SDS011;6856;51.460;7.158;2024-01-10T11:32:22;15.60;;;12.17;;
13568;SDS011;6856;51.460;7.158;2024-01-10T11:34:57;15.57;;;11.83;;
13568;SDS011;6856;51.460;7.158;2024-01-10T11:37:39;14.83;;;12.20;;
13568;SDS011;6856;51.460;7.158;2024-01-10T11:40:16;14.70;;;11.70;;
13568;SDS011;6856;51.460;7.158;2024-01-10T11:43:20;16.57;;;11.67;;
13568;SDS011;6856;51.460;7.158;2024-01-10T11:45:55;16.13;;;12.30;;
13568;SDS011;6856;51.460;7.158;2024-01-10T11:48:31;15.80;;;11.67;;
13568;SDS011;6856;51.460;7.158;2024-01-10T11:51:05;17.83;;;12.30;;
13568;SDS011;6856;51.460;7.158;2024-01-10T11:53:44;15.57;;;12.33;;
13568;SDS011;6856;51.460;7.158;2024-01-10T11:56:19;19.60;;;12.93;;
13568;SDS011;6856;51.460;7.158;2024-01-10T11:59:06;18.50;;;11.83;;
13568;SDS011;6856;51.460;7.158;2024-01-10T12:01:44;17.70;;;12.90;;
13568;SDS011;6856;51.460;7.158;2024-01-10T12:04:21;15.23;;;11.37;;
13568;SDS011;6856;51.460;7.158;2024-01-10T12:07:16;15.57;;;11.10;;
13568;SDS011;6856;51.460;7.158;2024-01-10T12:09:53;14.87;;;11.77;;
13568;SDS011;6856;51.460;7.158;2024-01-10T12:12:28;14.07;;;11.13;;
13568;SDS011;6856;51.460;7.158;2024-01-10T12:15:02;16.37;;;12.07;;
13568;SDS011;6856;51.460;7.158;2024-01-10T12:17:40;15.13;;;11.73;;
13568;SDS011;6856;51.460;7.158;2024-01-10T12:20:15;16.73;;;12.70;;
13568;SDS011;6856;51.460;7.158;2024-01-10T12:22:50;15.90;;;11.90;;
13568;SDS011;6856;51.460;7.158;2024-01-10T12:25:25;16.33;;;12.67;;
13568;SDS011;6856;51.460;7.158;2024-01-10T12:28:01;18.97;;;12.43;;
13568;SDS011;6856;51.460;7.158;2024-01-10T12:30:37;18.53;;;11.87;;
13568;SDS011;6856;51.460;7.158;2024-01-10T12:33:14;16.17;;;11.73;;
13568;SDS011;6856;51.460;7.158;2024-01-10T12:36:02;15.83;;;11.47;;
13568;SDS011;6856;51.460;7.158;2024-01-10T12:38:41;16.50;;;12.40;;
13568;SDS011;6856;51.460;7.158;2024-01-10T12:41:18;18.00;;;13.13;;
13568;SDS011;6856;51.460;7.158;2024-01-10T12:43:53;14.50;;;12.33;;
13568;SDS011;6856;51.460;7.158;2024-01-10T12:46:27;13.80;;;11.73;;
13568;SDS011;6856;51.460;7.158;2024-01-10T12:49:04;15.90;;;12.10;;
13568;SDS011;6856;51.460;7.158;2024-01-10T12:51:40;14.97;;;12.20;;
13568;SDS011;6856;51.460;7.158;2024-01-10T12:54:15;14.60;;;11.60;;
13568;SDS011;6856;51.460;7.158;2024-01-10T12:56:51;15.13;;;11.47;;
13568;SDS011;6856;51.460;7.158;2024-01-10T12:59:27;17.63;;;12.20;;
13568;SDS011;6856;51.460;7.158;2024-01-10T13:02:01;17.80;;;11.97;;
13568;SDS011;6856;51.460;7.158;2024-01-10T13:04:36;16.17;;;11.37;;
13568;SDS011;6856;51.460;7.158;2024-01-10T13:07:10;15.33;;;11.80;;
13568;SDS011;6856;51.460;7.158;2024-01-10T13:09:44;15.57;;;12.17;;
13568;SDS011;6856;51.460;7.158;2024-01-10T13:12:19;16.10;;;12.77;;
13568;SDS011;6856;51.460;7.158;2024-01-10T13:14:53;16.07;;;12.33;;
13568;SDS011;6856;51.460;7.158;2024-01-10T13:17:33;17.07;;;12.43;;
13568;SDS011;6856;51.460;7.158;2024-01-10T13:20:07;15.53;;;11.90;;
13568;SDS011;6856;51.460;7.158;2024-01-10T13:22:43;14.67;;;11.00;;
13568;SDS011;6856;51.460;7.158;2024-01-10T13:25:18;14.50;;;11.30;;
13568;SDS011;6856;51.460;7.158;2024-01-10T13:27:58;14.70;;;11.17;;
13568;SDS011;6856;51.460;7.158;2024-01-10T13:30:33;17.77;;;12.33;;
13568;SDS011;6856;51.460;7.158;2024-01-10T13:33:09;15.07;;;12.07;;
13568;SDS011;6856;51.460;7.158;2024-01-10T13:35:45;18.77;;;12.60;;
13568;SDS011;6856;51.460;7.158;2024-01-10T13:38:20;16.27;;;11.23;;
13568;SDS011;6856;51.460;7.158;2024-01-10T13:40:59;16.17;;;12.13;;
13568;SDS011;6856;51.460;7.158;2024-01-10T13:43:39;15.17;;;11.73;;
13568;SDS011;6856;51.460;7.158;2024-01-10T13:46:14;16.87;;;12.10;;
13568;SDS011;6856;51.460;7.158;2024-01-10T13:48:48;14.10;;;10.40;;
13568;SDS011;6856;51.460;7.158;2024-01-10T13:51:23;15.17;;;11.17;;
13568;SDS011;6856;51.460;7.158;2024-01-10T13:53:57;14.90;;;10.13;;
13568;SDS011;6856;51.460;7.158;2024-01-10T13:56:33;15.50;;;11.20;;
13568;SDS011;6856;51.460;7.158;2024-01-10T13:59:09;15.30;;;11.83;;
13568;SDS011;6856;51.460;7.158;2024-01-10T14:01:43;15.10;;;11.37;;
13568;SDS011;6856;51.460;7.158;2024-01-10T14:04:20;14.10;;;10.73;;
13568;SDS011;6856;51.460;7.158;2024-01-10T14:06:57;13.70;;;10.37;;
13568;SDS011;6856;51.460;7.158;2024-01-10T14:09:33;15.47;;;10.60;;
13568;SDS011;6856;51.460;7.158;2024-01-10T14:12:09;16.57;;;10.93;;
13568;SDS011;6856;51.460;7.158;2024-01-10T14:14:45;14.87;;;11.07;;
13568;SDS011;6856;51.460;7.158;2024-01-10T14:17:20;16.80;;;11.07;;
13568;SDS011;6856;51.460;7.158;2024-01-10T14:19:54;13.20;;;10.43;;
13568;SDS011;6856;51.460;7.158;2024-01-10T14:22:28;14.10;;;10.73;;
13568;SDS011;6856;51.460;7.158;2024-01-10T14:25:04;16.17;;;11.77;;
13568;SDS011;6856;51.460;7.158;2024-01-10T14:27:42;13.47;;;10.80;;
13568;SDS011;6856;51.460;7.158;2024-01-10T14:30:20;14.20;;;10.63;;
13568;SDS011;6856;51.460;7.158;2024-01-10T14:32:56;13.13;;;10.20;;
13568;SDS011;6856;51.460;7.158;2024-01-10T14:35:31;13.63;;;10.43;;
13568;SDS011;6856;51.460;7.158;2024-01-10T14:38:05;15.67;;;11.57;;
13568;SDS011;6856;51.460;7.158;2024-01-10T14:40:46;16.47;;;11.70;;
13568;SDS011;6856;51.460;7.158;2024-01-10T14:43:20;15.93;;;11.67;;
13568;SDS011;6856;51.460;7.158;2024-01-10T14:45:57;15.80;;;11.50;;
13568;SDS011;6856;51.460;7.158;2024-01-10T14:48:32;15.03;;;11.47;;
13568;SDS011;6856;51.460;7.158;2024-01-10T14:51:08;15.07;;;10.67;;
13568;SDS011;6856;51.460;7.158;2024-01-10T14:53:41;14.77;;;10.67;;
13568;SDS011;6856;51.460;7.158;2024-01-10T14:56:17;14.37;;;11.10;;
13568;SDS011;6856;51.460;7.158;2024-01-10T14:58:52;13.53;;;10.90;;
13568;SDS011;6856;51.460;7.158;2024-01-10T15:01:29;16.07;;;11.90;;
13568;SDS011;6856;51.460;7.158;2024-01-10T15:04:05;13.87;;;10.97;;
13568;SDS011;6856;51.460;7.158;2024-01-10T15:06:42;15.53;;;11.20;;
13568;SDS011;6856;51.460;7.158;2024-01-10T15:09:18;14.20;;;10.97;;
13568;SDS011;6856;51.460;7.158;2024-01-10T15:11:52;15.30;;;11.80;;
13568;SDS011;6856;51.460;7.158;2024-01-10T15:14:29;14.30;;;10.73;;
13568;SDS011;6856;51.460;7.158;2024-01-10T15:17:06;13.60;;;11.27;;
13568;SDS011;6856;51.460;7.158;2024-01-10T15:19:42;17.70;;;12.43;;
13568;SDS011;6856;51.460;7.158;2024-01-10T15:22:18;16.67;;;11.30;;
13568;SDS011;6856;51.460;7.158;2024-01-10T15:25:01;15.20;;;12.30;;
13568;SDS011;6856;51.460;7.158;2024-01-10T15:27:37;14.83;;;12.00;;
13568;SDS011;6856;51.460;7.158;2024-01-10T15:30:11;14.83;;;11.97;;
13568;SDS011;6856;51.460;7.158;2024-01-10T15:32:49;15.20;;;12.40;;
13568;SDS011;6856;51.460;7.158;2024-01-10T15:35:25;14.63;;;11.97;;
13568;SDS011;6856;51.460;7.158;2024-01-10T15:37:59;16.40;;;12.47;;
13568;SDS011;6856;51.460;7.158;2024-01-10T15:40:33;16.17;;;13.00;;
13568;SDS011;6856;51.460;7.158;2024-01-10T15:43:07;16.07;;;12.00;;
13568;SDS011;6856;51.460;7.158;2024-01-10T15:45:42;16.63;;;12.33;;
13568;SDS011;6856;51.460;7.158;2024-01-10T15:48:20;14.87;;;11.33;;
13568;SDS011;6856;51.460;7.158;2024-01-10T15:50:55;16.40;;;11.63;;